createdAt,value
2019-03-24T00:01:40.673Z,45.30
2019-03-24T00:04:02.649Z,48.40
2019-03-24T00:06:32.447Z,48.23
2019-03-24T00:09:02.213Z,47.17
2019-03-24T00:11:32.035Z,46.80
2019-03-24T00:14:01.807Z,46.63
2019-03-24T00:16:31.619Z,46.90
2019-03-24T00:19:01.389Z,48.80
2019-03-24T00:21:31.179Z,46.07
2019-03-24T00:24:01.078Z,42.90
2019-03-24T00:26:30.904Z,40.77
2019-03-24T00:29:00.726Z,41.63
2019-03-24T00:31:30.614Z,41.10
2019-03-24T00:34:00.488Z,38.57
2019-03-24T00:36:49.013Z,37.80
2019-03-24T00:39:19.701Z,42.37
2019-03-24T00:41:49.568Z,46.73
2019-03-24T00:44:20.179Z,45.13
2019-03-24T00:46:50.059Z,43.50
2019-03-24T00:49:19.809Z,44.93
2019-03-24T00:51:49.650Z,45.37
2019-03-24T00:54:19.424Z,46.30
2019-03-24T00:56:49.209Z,45.80
2019-03-24T00:59:19.011Z,45.80
2019-03-24T01:01:48.877Z,46.20
2019-03-24T01:04:18.679Z,45.10
2019-03-24T01:20:59.722Z,48.43
2019-03-24T01:23:29.469Z,47.33
2019-03-24T01:25:59.299Z,47.67
2019-03-24T01:28:29.061Z,49.27
2019-03-24T01:30:58.878Z,42.10
2019-03-24T01:33:28.648Z,49.83
2019-03-24T01:35:58.426Z,39.07
2019-03-24T01:38:28.182Z,47.53
2019-03-24T01:40:58.050Z,48.47
2019-03-24T01:43:27.800Z,49.40
2019-03-24T01:45:58.763Z,43.93
2019-03-24T01:48:29.092Z,37.33
2019-03-24T01:50:58.905Z,35.93
2019-03-24T01:53:28.645Z,37.43
2019-03-24T01:55:58.388Z,32.17
2019-03-24T01:58:28.160Z,30.70
2019-03-24T02:00:57.908Z,32.80
2019-03-24T02:03:27.694Z,34.17
2019-03-24T02:05:57.951Z,35.23
2019-03-24T02:08:27.764Z,36.40
2019-03-24T02:10:57.473Z,35.60
2019-03-24T02:13:27.237Z,34.57
2019-03-24T02:15:56.994Z,38.87
2019-03-24T02:18:26.768Z,42.33
2019-03-24T02:20:56.505Z,42.07
2019-03-24T02:23:26.274Z,40.30
2019-03-24T02:25:56.009Z,37.87
2019-03-24T02:28:25.793Z,33.33
2019-03-24T02:30:55.569Z,34.43
2019-03-24T02:33:25.386Z,32.77
2019-03-24T02:35:55.163Z,33.60
2019-03-24T02:38:24.936Z,34.13
2019-03-24T02:40:54.734Z,34.07
2019-03-24T02:43:24.572Z,35.53
2019-03-24T02:45:54.310Z,35.60
2019-03-24T02:48:24.140Z,37.27
2019-03-24T02:50:53.982Z,37.50
2019-03-24T02:53:23.804Z,39.47
2019-03-24T02:55:53.572Z,36.23
2019-03-24T02:58:23.346Z,38.40
2019-03-24T03:00:53.129Z,38.43
2019-03-24T03:03:22.898Z,40.03
2019-03-24T03:05:52.662Z,39.70
2019-03-24T03:08:22.461Z,39.60
2019-03-24T03:10:52.237Z,39.00
2019-03-24T03:13:22.006Z,37.43
2019-03-24T03:15:51.745Z,39.47
2019-03-24T03:18:21.537Z,41.87
2019-03-24T03:20:51.272Z,40.70
2019-03-24T03:23:21.065Z,49.03
2019-03-24T03:25:50.851Z,41.47
2019-03-24T03:28:20.620Z,38.87
2019-03-24T03:30:50.374Z,37.53
2019-03-24T03:33:59.273Z,39.17
2019-03-24T03:36:29.025Z,41.53
2019-03-24T03:38:58.762Z,40.43
2019-03-24T03:41:28.575Z,42.50
2019-03-24T03:43:58.392Z,41.30
2019-03-24T03:46:28.153Z,39.53
2019-03-24T03:48:57.910Z,39.97
2019-03-24T03:51:27.657Z,41.83
2019-03-24T03:53:59.092Z,40.83
2019-03-24T03:56:28.926Z,39.77
2019-03-24T03:58:59.028Z,38.60
2019-03-24T04:01:28.807Z,38.23
2019-03-24T04:03:58.579Z,40.23
2019-03-24T04:06:28.731Z,39.70
2019-03-24T04:08:58.478Z,36.47
2019-03-24T04:11:28.278Z,35.80
2019-03-24T04:13:57.985Z,34.03
2019-03-24T04:16:27.742Z,32.83
2019-03-24T04:18:57.504Z,33.10
2019-03-24T04:21:27.313Z,33.87
2019-03-24T04:23:57.085Z,32.13
2019-03-24T04:26:26.873Z,30.23
2019-03-24T04:28:56.603Z,27.77
2019-03-24T04:31:26.407Z,28.93
2019-03-24T04:33:56.162Z,27.33
2019-03-24T04:36:26.241Z,25.37
2019-03-24T04:38:56.029Z,26.23
2019-03-24T04:41:25.777Z,27.37
2019-03-24T04:43:55.520Z,24.90
2019-03-24T04:46:25.335Z,25.23
2019-03-24T04:48:55.103Z,23.53
2019-03-24T04:51:24.889Z,23.83
2019-03-24T04:53:54.693Z,23.77
2019-03-24T04:56:24.441Z,24.43
2019-03-24T04:58:54.233Z,25.27
2019-03-24T05:01:24.065Z,23.50
2019-03-24T05:03:53.860Z,24.00
2019-03-24T05:06:23.907Z,23.27
2019-03-24T05:12:02.762Z,24.07
2019-03-24T05:14:32.519Z,24.47
2019-03-24T05:17:02.386Z,24.63
2019-03-24T05:19:32.143Z,22.93
2019-03-24T05:22:01.937Z,22.40
2019-03-24T05:24:31.777Z,20.53
2019-03-24T05:27:01.931Z,19.90
2019-03-24T05:29:31.676Z,17.80
2019-03-24T05:32:01.451Z,17.23
2019-03-24T05:34:31.227Z,20.03
2019-03-24T05:37:02.906Z,20.03
2019-03-24T05:39:32.648Z,20.37
2019-03-24T05:42:02.683Z,19.40
2019-03-24T05:44:32.413Z,19.67
2019-03-24T05:47:02.259Z,17.97
2019-03-24T05:49:32.001Z,18.87
2019-03-24T05:52:01.770Z,18.70
2019-03-24T05:54:31.526Z,18.30
2019-03-24T05:57:01.314Z,18.57
2019-03-24T05:59:31.091Z,18.20
2019-03-24T06:02:00.871Z,18.50
2019-03-24T06:04:30.669Z,17.73
2019-03-24T06:07:00.813Z,18.50
2019-03-24T06:09:30.579Z,18.37
2019-03-24T06:12:00.352Z,17.77
2019-03-24T06:14:30.109Z,17.67
2019-03-24T06:16:59.888Z,17.87
2019-03-24T06:19:29.634Z,16.93
2019-03-24T06:21:59.425Z,17.97
2019-03-24T06:24:29.218Z,18.37
2019-03-24T06:26:58.970Z,17.37
2019-03-24T06:29:28.747Z,18.40
2019-03-24T06:31:58.502Z,18.00
2019-03-24T06:34:28.299Z,19.63
2019-03-24T06:36:58.052Z,17.93
2019-03-24T06:39:27.852Z,18.27
2019-03-24T06:41:57.620Z,18.83
2019-03-24T06:44:27.385Z,18.73
2019-03-24T06:46:57.101Z,20.10
2019-03-24T06:49:27.199Z,19.03
2019-03-24T06:51:56.929Z,18.70
2019-03-24T06:54:45.524Z,19.77
2019-03-24T06:57:16.955Z,19.53
2019-03-24T06:59:46.788Z,19.43
2019-03-24T07:02:16.519Z,19.33
2019-03-24T07:04:46.276Z,20.00
2019-03-24T07:07:16.048Z,20.73
2019-03-24T07:09:45.869Z,19.97
2019-03-24T07:12:15.616Z,20.43
2019-03-24T07:14:45.401Z,22.07
2019-03-24T07:17:15.130Z,21.43
2019-03-24T07:19:44.900Z,22.47
2019-03-24T07:22:14.631Z,23.80
2019-03-24T07:24:44.396Z,22.27
2019-03-24T07:27:14.132Z,23.20
2019-03-24T07:29:43.959Z,24.13
2019-03-24T07:32:13.718Z,24.77
2019-03-24T07:34:43.827Z,24.53
2019-03-24T07:37:13.597Z,24.17
2019-03-24T07:39:43.400Z,23.77
2019-03-24T07:42:13.130Z,24.73
2019-03-24T07:44:42.952Z,26.73
2019-03-24T07:47:31.509Z,25.03
2019-03-24T07:50:01.315Z,25.97
2019-03-24T07:52:31.955Z,24.10
2019-03-24T07:55:01.699Z,26.23
2019-03-24T07:57:31.464Z,25.63
2019-03-24T08:00:01.222Z,26.53
2019-03-24T08:02:30.966Z,25.97
2019-03-24T08:05:00.748Z,24.93
2019-03-24T08:07:30.512Z,25.13
2019-03-24T08:10:00.559Z,25.93
2019-03-24T08:12:30.311Z,28.77
2019-03-24T08:15:00.213Z,25.57
2019-03-24T08:17:30.400Z,22.87
2019-03-24T08:20:00.347Z,24.40
2019-03-24T08:22:30.380Z,27.77
2019-03-24T08:25:00.483Z,27.70
2019-03-24T08:27:30.274Z,24.53
2019-03-24T08:30:00.037Z,25.40
2019-03-24T08:32:29.785Z,25.83
2019-03-24T08:34:59.599Z,26.03
2019-03-24T08:37:29.352Z,24.60
2019-03-24T08:39:59.208Z,25.90
2019-03-24T08:42:29.007Z,26.37
2019-03-24T08:44:58.760Z,26.37
2019-03-24T08:47:28.556Z,27.97
2019-03-24T08:49:58.340Z,25.93
2019-03-24T08:52:28.355Z,27.47
2019-03-24T08:54:59.881Z,27.77
2019-03-24T08:57:29.620Z,25.53
2019-03-24T08:59:59.423Z,25.40
2019-03-24T09:02:29.167Z,27.57
2019-03-24T09:04:59.199Z,25.70
2019-03-24T09:07:28.952Z,26.77
2019-03-24T09:09:58.703Z,27.53
2019-03-24T09:12:28.514Z,27.30
2019-03-24T09:14:58.371Z,26.97
2019-03-24T09:17:28.169Z,27.40
2019-03-24T09:19:58.105Z,30.67
2019-03-24T09:22:27.919Z,28.13
2019-03-24T09:24:57.667Z,26.60
2019-03-24T09:27:27.567Z,26.73
2019-03-24T09:30:06.979Z,27.40
2019-03-24T09:32:36.757Z,26.13
2019-03-24T09:35:07.029Z,28.40
2019-03-24T09:37:36.810Z,28.73
2019-03-24T09:40:07.518Z,27.10
2019-03-24T09:42:37.704Z,27.23
2019-03-24T09:45:07.517Z,27.03
2019-03-24T09:47:37.313Z,26.70
2019-03-24T09:50:07.261Z,27.57
2019-03-24T09:52:37.056Z,25.40
2019-03-24T09:55:26.553Z,25.87
2019-03-24T09:58:18.967Z,22.97
2019-03-24T10:03:40.714Z,26.53
2019-03-24T10:06:10.519Z,22.00
2019-03-24T10:08:46.944Z,21.60
2019-03-24T10:11:11.831Z,22.70
2019-03-24T10:13:41.691Z,19.17
2019-03-24T10:16:11.673Z,21.07
2019-03-24T10:18:41.435Z,18.20
2019-03-24T10:21:11.576Z,18.40
2019-03-24T10:24:00.224Z,17.97
2019-03-24T10:26:29.960Z,20.93
2019-03-24T10:28:59.767Z,17.83
2019-03-24T10:31:29.519Z,19.90
2019-03-24T10:34:00.136Z,18.67
2019-03-24T10:36:30.232Z,17.33
2019-03-24T10:39:18.386Z,17.20
2019-03-24T10:41:50.950Z,14.67
2019-03-24T10:44:23.833Z,13.93
2019-03-24T10:46:57.145Z,13.63
2019-03-24T11:00:53.455Z,16.40
2019-03-24T11:03:23.250Z,15.53
2019-03-24T11:05:53.994Z,15.73
2019-03-24T11:08:23.820Z,15.60
2019-03-24T11:10:54.017Z,16.77
2019-03-24T11:13:25.744Z,15.47
2019-03-24T11:15:56.019Z,17.70
2019-03-24T11:18:26.225Z,17.40
2019-03-24T11:21:08.939Z,17.93
2019-03-24T11:24:10.077Z,15.00
2019-03-24T11:27:11.813Z,15.23
2019-03-24T11:30:02.986Z,15.47
2019-03-24T11:32:33.286Z,18.03
2019-03-24T11:35:27.399Z,17.87
2019-03-24T11:37:57.195Z,19.10
2019-03-24T11:48:50.349Z,20.67
2019-03-24T11:51:20.227Z,21.00
2019-03-24T11:53:49.995Z,19.87
2019-03-24T11:56:19.842Z,20.47
2019-03-24T11:58:49.963Z,18.67
2019-03-24T12:01:20.138Z,19.53
2019-03-24T12:03:49.957Z,18.33
2019-03-24T12:06:19.848Z,16.33
2019-03-24T12:08:50.149Z,18.80
2019-03-24T12:11:22.426Z,18.07
2019-03-24T12:13:54.492Z,19.20
2019-03-24T12:16:24.276Z,18.57
2019-03-24T12:18:54.332Z,17.40
2019-03-24T12:21:24.115Z,17.20
2019-03-24T12:23:53.906Z,18.77
2019-03-24T12:26:23.776Z,17.80
2019-03-24T12:28:53.641Z,15.70
2019-03-24T12:31:23.715Z,16.30
2019-03-24T12:33:53.526Z,13.50
2019-03-24T12:36:23.428Z,15.40
2019-03-24T12:38:53.613Z,13.37
2019-03-24T12:41:23.454Z,16.60
2019-03-24T12:43:53.229Z,15.80
2019-03-24T12:46:23.028Z,11.57
2019-03-24T12:48:52.813Z,11.43
2019-03-24T12:51:22.611Z,9.37
2019-03-24T12:53:52.424Z,11.17
2019-03-24T12:56:22.228Z,11.57
2019-03-24T12:58:52.078Z,11.07
2019-03-24T13:01:40.653Z,10.37
2019-03-24T13:04:10.729Z,10.33
2019-03-24T13:06:40.537Z,10.87
2019-03-24T13:09:10.327Z,10.63
2019-03-24T13:11:40.100Z,10.67
2019-03-24T13:14:09.886Z,9.77
2019-03-24T13:16:41.962Z,11.27
2019-03-24T13:19:11.757Z,9.37
2019-03-24T13:21:41.568Z,8.20
2019-03-24T13:24:11.331Z,6.57
2019-03-24T13:26:41.133Z,6.93
2019-03-24T13:29:10.881Z,6.47
2019-03-24T13:31:40.641Z,6.63
2019-03-24T13:34:10.419Z,6.03
2019-03-24T13:36:40.247Z,6.77
2019-03-24T13:39:10.085Z,6.87
2019-03-24T13:41:40.791Z,5.50
2019-03-24T13:44:10.545Z,6.60
2019-03-24T13:46:40.454Z,7.83
2019-03-24T13:49:10.248Z,6.73
2019-03-24T13:54:39.221Z,6.70
2019-03-24T13:57:09.247Z,6.63
2019-03-24T14:02:27.914Z,7.87
2019-03-24T14:04:59.559Z,7.28
2019-03-24T14:07:29.434Z,7.60
2019-03-24T14:10:00.169Z,6.93
2019-03-24T14:12:30.109Z,7.50
2019-03-24T14:15:00.324Z,7.10
2019-03-24T14:17:30.400Z,6.90
2019-03-24T14:20:00.501Z,5.80
2019-03-24T14:22:30.359Z,5.70
2019-03-24T14:25:00.392Z,5.63
2019-03-24T14:27:30.172Z,5.63
2019-03-24T14:30:40.398Z,5.57
2019-03-24T14:33:29.052Z,4.30
2019-03-24T14:35:58.845Z,4.50
2019-03-24T14:38:47.746Z,4.00
2019-03-24T14:41:17.543Z,3.83
2019-03-24T14:43:47.399Z,4.20
2019-03-24T14:46:17.198Z,4.37
2019-03-24T14:48:46.974Z,4.13
2019-03-24T14:51:17.758Z,3.87
2019-03-24T14:53:48.419Z,3.97
2019-03-24T14:56:22.515Z,3.60
2019-03-24T14:58:59.157Z,3.60
2019-03-24T15:09:36.463Z,3.70
2019-03-24T15:12:06.694Z,3.93
2019-03-24T15:14:36.487Z,3.83
2019-03-24T15:17:06.242Z,3.17
2019-03-24T15:19:36.068Z,3.43
2019-03-24T15:22:05.814Z,3.67
2019-03-24T15:24:35.936Z,3.37
2019-03-24T15:27:05.717Z,3.60
2019-03-24T15:29:35.599Z,3.00
2019-03-24T15:32:15.166Z,3.43
2019-03-24T15:34:45.117Z,2.63
2019-03-24T15:37:17.943Z,2.57
2019-03-24T15:39:47.802Z,3.00
2019-03-24T15:42:36.410Z,2.77
2019-03-24T15:45:06.437Z,3.63
2019-03-24T15:47:36.271Z,3.50
2019-03-24T15:53:01.783Z,3.27
2019-03-24T15:55:32.086Z,3.80
2019-03-24T16:00:51.437Z,3.60
2019-03-24T16:03:40.021Z,4.47
2019-03-24T16:06:10.328Z,3.00
2019-03-24T16:08:40.189Z,3.17
2019-03-24T16:11:09.999Z,3.53
2019-03-24T16:13:40.199Z,3.10
2019-03-24T16:16:10.359Z,3.67
2019-03-24T16:18:40.145Z,3.40
2019-03-24T16:21:10.084Z,3.10
2019-03-24T16:23:40.160Z,3.50
2019-03-24T16:26:10.020Z,3.33
2019-03-24T16:28:40.211Z,4.23
2019-03-24T16:31:10.009Z,3.53
2019-03-24T16:33:59.120Z,3.57
2019-03-24T16:36:29.239Z,4.70
2019-03-24T16:39:03.599Z,2.77
2019-03-24T16:41:30.513Z,3.43
2019-03-24T16:44:00.275Z,2.80
2019-03-24T16:46:30.063Z,2.53
2019-03-24T16:49:00.125Z,3.00
2019-03-24T16:51:38.136Z,3.03
2019-03-24T16:54:01.458Z,2.93
2019-03-24T16:56:31.281Z,3.10
2019-03-24T16:59:01.317Z,2.33
2019-03-24T17:01:31.157Z,2.60
2019-03-24T17:04:01.170Z,2.47
2019-03-24T17:06:31.023Z,2.57
2019-03-24T17:09:00.820Z,2.70
2019-03-24T17:11:30.622Z,2.17
2019-03-24T17:14:00.380Z,2.33
2019-03-24T17:16:30.170Z,2.63
2019-03-24T17:18:59.933Z,3.10
2019-03-24T17:21:29.956Z,3.30
2019-03-24T17:23:59.771Z,2.97
2019-03-24T17:26:29.562Z,2.87
2019-03-24T17:28:59.578Z,2.93
2019-03-24T17:31:29.335Z,3.20
2019-03-24T17:33:59.130Z,3.17
2019-03-24T17:36:28.940Z,2.70
2019-03-24T17:38:58.754Z,3.87
2019-03-24T17:41:28.579Z,4.10
2019-03-24T17:44:03.117Z,3.50
2019-03-24T17:46:29.896Z,4.77
2019-03-24T17:49:00.105Z,4.23
2019-03-24T17:51:30.160Z,4.60
2019-03-24T17:54:00.011Z,3.63
2019-03-24T17:56:30.111Z,3.90
2019-03-24T17:58:59.975Z,3.60
2019-03-24T18:01:29.929Z,4.27
2019-03-24T18:04:00.522Z,4.30
2019-03-24T18:06:30.376Z,3.83
2019-03-24T18:09:00.887Z,4.30
2019-03-24T18:11:30.705Z,4.07
2019-03-24T18:14:00.560Z,4.30
2019-03-24T18:16:49.636Z,4.30
2019-03-24T18:19:19.533Z,4.17
2019-03-24T18:21:49.695Z,4.07
2019-03-24T18:24:19.562Z,9.13
2019-03-24T18:26:49.445Z,13.60
2019-03-24T18:29:38.614Z,23.97
2019-03-24T18:32:08.455Z,13.47
2019-03-24T18:34:38.389Z,7.63
2019-03-24T18:37:08.232Z,7.70
2019-03-24T18:39:38.413Z,7.77
2019-03-24T18:42:08.316Z,8.17
2019-03-24T18:44:38.257Z,9.43
2019-03-24T18:47:08.459Z,6.43
2019-03-24T18:49:38.863Z,3.67
2019-03-24T18:52:08.702Z,6.47
2019-03-24T18:54:38.925Z,27.97
2019-03-24T18:57:08.748Z,18.87
2019-03-24T18:59:38.585Z,6.63
2019-03-24T19:02:08.487Z,5.30
2019-03-24T19:04:38.319Z,4.07
2019-03-24T19:07:08.208Z,5.43
2019-03-24T19:09:38.436Z,4.80
2019-03-24T19:12:08.278Z,4.03
2019-03-24T19:14:40.176Z,3.93
2019-03-24T19:17:10.352Z,3.73
2019-03-24T19:19:41.064Z,5.00
2019-03-24T19:22:10.907Z,3.83
2019-03-24T19:24:41.602Z,3.70
2019-03-24T19:27:12.441Z,3.30
2019-03-24T19:29:43.116Z,3.40
2019-03-24T19:32:13.878Z,3.47
2019-03-24T19:34:44.534Z,3.77
2019-03-24T19:37:14.568Z,4.10
2019-03-24T19:39:44.879Z,4.13
2019-03-24T19:42:15.020Z,3.80
2019-03-24T19:44:44.859Z,3.80
2019-03-24T19:47:15.443Z,3.93
2019-03-24T19:49:45.236Z,6.23
2019-03-24T19:52:15.938Z,4.93
2019-03-24T19:55:35.430Z,3.60
2019-03-24T19:58:25.397Z,4.03
2019-03-24T20:01:14.435Z,3.30
2019-03-24T20:03:44.277Z,3.20
2019-03-24T20:12:05.635Z,2.90
2019-03-24T20:14:35.709Z,3.40
2019-03-24T20:17:05.520Z,2.73
2019-03-24T20:19:35.682Z,3.20
2019-03-24T20:22:05.498Z,3.53
2019-03-24T20:24:35.352Z,2.93
2019-03-24T20:27:05.141Z,2.80
2019-03-24T20:29:35.364Z,3.23
2019-03-24T20:32:05.277Z,2.97
2019-03-24T20:34:35.065Z,21.37
2019-03-24T20:37:04.841Z,27.13
2019-03-24T20:39:34.594Z,9.40
2019-03-24T20:42:04.857Z,6.67
2019-03-24T20:44:34.636Z,7.40
2019-03-24T20:47:04.485Z,5.17
2019-03-24T20:49:35.096Z,3.30
2019-03-24T20:52:05.315Z,4.00
2019-03-24T20:54:35.436Z,4.17
2019-03-24T20:57:05.218Z,7.63
2019-03-24T20:59:35.067Z,22.47
2019-03-24T21:02:04.866Z,12.17
2019-03-24T21:10:32.530Z,41.80
2019-03-24T21:13:45.148Z,23.97
2019-03-24T21:16:15.697Z,4.60
2019-03-24T21:18:45.949Z,4.23
2019-03-24T21:21:16.006Z,4.83
2019-03-24T21:23:46.080Z,4.10
2019-03-24T21:26:15.886Z,3.77
2019-03-24T21:28:45.675Z,3.77
2019-03-24T21:31:15.737Z,3.30
2019-03-24T21:33:45.594Z,3.63
2019-03-24T21:36:16.177Z,4.53
2019-03-24T21:38:45.990Z,4.63
2019-03-24T21:41:16.075Z,5.50
2019-03-24T21:43:46.215Z,15.33
2019-03-24T21:46:16.430Z,9.97
2019-03-24T21:48:46.850Z,6.67
2019-03-24T21:51:16.950Z,12.90
2019-03-24T21:53:46.778Z,16.50
2019-03-24T21:56:16.601Z,24.60
2019-03-24T21:58:46.469Z,11.80
2019-03-24T22:01:16.921Z,8.87
2019-03-24T22:03:46.716Z,4.30
2019-03-24T22:06:16.519Z,3.90
2019-03-24T22:08:46.312Z,4.40
2019-03-24T22:11:16.089Z,4.07
2019-03-24T22:13:46.390Z,3.90
2019-03-24T22:16:16.168Z,3.67
2019-03-24T22:18:46.009Z,3.57
2019-03-24T22:21:16.151Z,3.23
2019-03-24T22:23:52.231Z,3.13
2019-03-24T22:26:17.430Z,3.90
2019-03-24T22:28:47.292Z,3.93
2019-03-24T22:31:17.738Z,3.93
2019-03-24T22:33:48.159Z,2.90
2019-03-24T22:36:17.967Z,3.93
2019-03-24T22:38:47.847Z,4.00
2019-03-24T22:41:17.717Z,4.00
2019-03-24T22:43:47.542Z,3.47
2019-03-24T22:46:17.509Z,4.37
2019-03-24T22:48:47.374Z,4.30
2019-03-24T22:51:17.158Z,4.07
2019-03-24T22:53:46.997Z,3.70
2019-03-24T22:56:16.751Z,4.43
2019-03-24T22:58:46.562Z,3.93
2019-03-24T23:01:36.890Z,4.40
2019-03-24T23:04:06.659Z,4.57
2019-03-24T23:06:37.022Z,4.10
2019-03-24T23:09:09.481Z,4.13
2019-03-24T23:11:39.431Z,4.30
2019-03-24T23:14:09.219Z,5.03
2019-03-24T23:16:39.006Z,4.17
2019-03-24T23:19:09.218Z,5.00
2019-03-24T23:21:39.356Z,5.10
2019-03-24T23:24:15.260Z,4.50
2019-03-24T23:26:40.733Z,4.87
2019-03-24T23:29:10.486Z,5.20
2019-03-24T23:31:40.738Z,3.97
2019-03-24T23:34:10.790Z,4.00
2019-03-24T23:36:40.676Z,4.17
2019-03-24T23:39:10.894Z,4.10
2019-03-24T23:41:40.620Z,4.20
2019-03-24T23:44:10.749Z,5.23
2019-03-24T23:46:40.530Z,3.80
2019-03-24T23:49:10.339Z,3.97
2019-03-24T23:51:40.152Z,5.00
2019-03-24T23:54:09.975Z,4.27
2019-03-24T23:56:39.756Z,4.57
2019-03-24T23:59:09.558Z,4.10
